Time,TemperatureF,DewpointF,PressureIn,WindDirection,WindDirectionDegrees,WindSpeedMPH,WindSpeedGustMPH,Humidity,HourlyPrecipIn,Conditions,Clouds,dailyrainin,SoftwareType,DateUTC
2013-07-22 00:04:00,63.0,60.9,29.91,NW,315,7.0,10.0,93,0.00,,,-99.99,Weather View 32 v70,2013-07-22 06:04:00,
2013-07-22 00:09:00,63.0,61.2,29.91,NW,315,7.0,10.0,94,0.00,,,-99.99,Weather View 32 v70,2013-07-22 06:09:00,
2013-07-22 00:14:00,63.0,60.9,29.91,NW,315,7.0,10.0,93,0.00,,,-99.99,Weather View 32 v70,2013-07-22 06:14:00,
2013-07-22 00:19:00,63.0,60.9,29.91,NNW,337,5.0,10.0,93,0.00,,,-99.99,Weather View 32 v70,2013-07-22 06:19:00,
2013-07-22 00:24:00,62.0,60.5,29.91,North,360,6.0,10.0,95,0.00,,,-99.99,Weather View 32 v70,2013-07-22 06:24:00,
2013-07-22 00:29:00,62.0,61.1,29.91,North,360,4.0,10.0,97,0.00,,,-99.99,Weather View 32 v70,2013-07-22 06:29:00,
2013-07-22 00:34:00,61.0,60.4,29.93,North,360,6.0,10.0,98,0.00,,,-99.99,Weather View 32 v70,2013-07-22 06:34:00,
2013-07-22 00:39:00,61.0,60.4,29.93,North,360,7.0,10.0,98,0.00,,,-99.99,Weather View 32 v70,2013-07-22 06:39:00,
2013-07-22 00:44:00,61.0,60.4,29.93,NNE,22,7.0,10.0,98,0.00,,,-99.99,Weather View 32 v70,2013-07-22 06:44:00,
2013-07-22 00:49:00,62.0,60.8,29.93,North,360,8.0,10.0,96,0.00,,,-99.99,Weather View 32 v70,2013-07-22 06:49:00,
2013-07-22 00:54:00,63.0,60.3,29.93,NW,315,7.0,11.0,91,0.00,,,-99.99,Weather View 32 v70,2013-07-22 06:54:00,
2013-07-22 00:59:00,63.0,59.7,29.93,NE,45,6.0,11.0,89,0.00,,,-99.99,Weather View 32 v70,2013-07-22 06:59:00,
2013-07-22 01:04:00,63.0,60.0,29.92,NE,45,9.0,12.0,90,0.00,,,-99.99,Weather View 32 v70,2013-07-22 07:04:00,
2013-07-22 01:09:00,63.0,60.3,29.92,NNW,337,7.0,12.0,91,0.00,,,-99.99,Weather View 32 v70,2013-07-22 07:09:00,
2013-07-22 01:14:00,63.0,60.6,29.92,North,360,6.0,12.0,92,0.00,,,-99.99,Weather View 32 v70,2013-07-22 07:14:00,
2013-07-22 01:19:00,62.0,60.2,29.92,NNW,337,5.0,12.0,94,0.00,,,-99.99,Weather View 32 v70,2013-07-22 07:19:00,
2013-07-22 01:24:00,62.0,60.2,29.93,NW,315,6.0,12.0,94,0.00,,,-99.99,Weather View 32 v70,2013-07-22 07:24:00,
2013-07-22 01:29:00,62.0,60.5,29.93,NW,315,6.0,12.0,95,0.00,,,-99.99,Weather View 32 v70,2013-07-22 07:29:00,
2013-07-22 01:34:00,62.0,59.9,29.93,NW,315,5.0,12.0,93,0.00,,,-99.99,Weather View 32 v70,2013-07-22 07:34:00,
2013-07-22 01:39:00,62.0,60.2,29.93,NNW,337,6.0,12.0,94,0.00,,,-99.99,Weather View 32 v70,2013-07-22 07:39:00,
2013-07-22 01:44:00,62.0,59.9,29.93,NW,315,7.0,12.0,93,0.00,,,-99.99,Weather View 32 v70,2013-07-22 07:44:00,
2013-07-22 01:49:00,62.0,60.8,29.93,NW,315,11.0,12.0,96,0.00,,,-99.99,Weather View 32 v70,2013-07-22 07:49:00,
2013-07-22 01:54:00,62.0,60.2,29.93,NNW,337,8.0,12.0,94,0.00,,,-99.99,Weather View 32 v70,2013-07-22 07:54:00,
2013-07-22 01:59:00,62.0,60.2,29.93,NW,315,9.0,12.0,94,0.00,,,-99.99,Weather View 32 v70,2013-07-22 07:59:00,
2013-07-22 02:09:00,62.0,59.3,29.93,NNW,337,11.0,12.0,91,0.00,,,-99.99,Weather View 32 v70,2013-07-22 08:09:00,
2013-07-22 02:14:00,62.0,58.7,29.93,NW,315,12.0,12.0,89,0.00,,,-99.99,Weather View 32 v70,2013-07-22 08:14:00,
2013-07-22 02:19:00,62.0,58.7,29.93,NW,315,10.0,15.0,89,0.00,,,-99.99,Weather View 32 v70,2013-07-22 08:19:00,
2013-07-22 02:24:00,61.0,58.3,29.93,NNW,337,9.0,15.0,91,0.00,,,-99.99,Weather View 32 v70,2013-07-22 08:24:00,
2013-07-22 02:29:00,61.0,58.3,29.93,NW,315,9.0,15.0,91,0.00,,,-99.99,Weather View 32 v70,2013-07-22 08:29:00,
2013-07-22 02:34:00,62.0,59.0,29.93,NW,315,10.0,15.0,90,0.00,,,-99.99,Weather View 32 v70,2013-07-22 08:34:00,
2013-07-22 02:39:00,62.0,58.4,29.93,NW,315,9.0,15.0,88,0.00,,,-99.99,Weather View 32 v70,2013-07-22 08:39:00,
2013-07-22 02:44:00,64.0,58.7,29.92,NW,315,9.0,15.0,83,0.00,,,-99.99,Weather View 32 v70,2013-07-22 08:44:00,
2013-07-22 02:49:00,64.0,57.3,29.92,NW,315,13.0,15.0,79,0.00,,,-99.99,Weather View 32 v70,2013-07-22 08:49:00,
2013-07-22 02:54:00,64.0,57.3,29.92,NW,315,12.0,15.0,79,0.00,,,-99.99,Weather View 32 v70,2013-07-22 08:54:00,
2013-07-22 02:59:00,63.0,57.1,29.92,NNW,337,8.0,15.0,81,0.00,,,-99.99,Weather View 32 v70,2013-07-22 08:59:00,
2013-07-22 03:04:00,63.0,56.7,29.92,NW,315,9.0,15.0,80,0.00,,,-99.99,Weather View 32 v70,2013-07-22 09:04:00,
2013-07-22 03:14:00,62.0,57.4,29.93,NW,315,9.0,15.0,85,0.00,,,-99.99,Weather View 32 v70,2013-07-22 09:14:00,
2013-07-22 03:19:00,62.0,56.8,29.93,NW,315,10.0,14.0,83,0.00,,,-99.99,Weather View 32 v70,2013-07-22 09:19:00,
2013-07-22 03:24:00,62.0,57.1,29.93,NW,315,7.0,14.0,84,0.00,,,-99.99,Weather View 32 v70,2013-07-22 09:24:00,
2013-07-22 03:29:00,62.0,57.1,29.93,NW,315,6.0,14.0,84,0.00,,,-99.99,Weather View 32 v70,2013-07-22 09:29:00,
2013-07-22 03:34:00,62.0,57.4,29.93,NW,315,6.0,14.0,85,0.00,,,-99.99,Weather View 32 v70,2013-07-22 09:34:00,
2013-07-22 03:39:00,61.0,56.4,29.93,WNW,292,6.0,14.0,85,0.00,,,-99.99,Weather View 32 v70,2013-07-22 09:39:00,
2013-07-22 03:44:00,62.0,56.1,29.93,WNW,292,6.0,13.0,81,0.00,,,-99.99,Weather View 32 v70,2013-07-22 09:44:00,
2013-07-22 03:49:00,62.0,56.8,29.93,NW,315,6.0,13.0,83,0.00,,,-99.99,Weather View 32 v70,2013-07-22 09:49:00,
2013-07-22 03:54:00,61.0,57.1,29.93,North,360,6.0,13.0,87,0.00,,,-99.99,Weather View 32 v70,2013-07-22 09:54:00,
2013-07-22 03:59:00,60.0,57.4,29.93,NNW,337,7.0,13.0,91,0.00,,,-99.99,Weather View 32 v70,2013-07-22 09:59:00,
2013-07-22 04:04:00,59.0,57.0,29.94,NNW,337,7.0,12.0,93,0.00,,,-99.99,Weather View 32 v70,2013-07-22 10:04:00,
2013-07-22 04:09:00,59.0,57.3,29.94,NW,315,6.0,12.0,94,0.00,,,-99.99,Weather View 32 v70,2013-07-22 10:09:00,
2013-07-22 04:14:00,59.0,56.7,29.95,NW,315,5.0,12.0,92,0.00,,,-99.99,Weather View 32 v70,2013-07-22 10:14:00,
2013-07-22 04:19:00,59.0,56.7,29.95,NW,315,6.0,12.0,92,0.00,,,-99.99,Weather View 32 v70,2013-07-22 10:19:00,
2013-07-22 04:24:00,59.0,57.0,29.95,NW,315,6.0,11.0,93,0.00,,,-99.99,Weather View 32 v70,2013-07-22 10:24:00,
2013-07-22 04:29:00,59.0,57.0,29.95,NW,315,6.0,11.0,93,0.00,,,-99.99,Weather View 32 v70,2013-07-22 10:29:00,
2013-07-22 04:39:00,58.0,56.6,29.94,NNW,337,6.0,11.0,95,0.00,,,-99.99,Weather View 32 v70,2013-07-22 10:39:00,
2013-07-22 04:44:00,58.0,56.6,29.95,NW,315,5.0,9.0,95,0.00,,,-99.99,Weather View 32 v70,2013-07-22 10:44:00,
2013-07-22 04:49:00,58.0,56.3,29.95,NW,315,4.0,9.0,94,0.00,,,-99.99,Weather View 32 v70,2013-07-22 10:49:00,
2013-07-22 04:54:00,60.0,54.5,29.95,WNW,292,6.0,9.0,82,0.00,,,-99.99,Weather View 32 v70,2013-07-22 10:54:00,
2013-07-22 05:04:00,62.0,54.0,29.92,NW,315,9.0,13.0,75,0.00,,,-99.99,Weather View 32 v70,2013-07-22 11:04:00,
2013-07-22 05:09:00,61.0,53.0,29.92,NW,315,7.0,13.0,75,0.00,,,-99.99,Weather View 32 v70,2013-07-22 11:09:00,
2013-07-22 05:14:00,60.0,54.1,29.93,NNW,337,6.0,13.0,81,0.00,,,-99.99,Weather View 32 v70,2013-07-22 11:14:00,
2013-07-22 05:24:00,59.0,51.4,29.95,NW,315,7.0,13.0,76,0.00,,,-99.99,Weather View 32 v70,2013-07-22 11:24:00,
2013-07-22 05:29:00,59.0,50.7,29.95,NW,315,7.0,13.0,74,0.00,,,-99.99,Weather View 32 v70,2013-07-22 11:29:00,
2013-07-22 05:34:00,60.0,48.6,29.95,NW,315,7.0,13.0,66,0.00,,,-99.99,Weather View 32 v70,2013-07-22 11:34:00,
2013-07-22 05:39:00,60.0,50.9,29.95,NW,315,7.0,13.0,72,0.00,,,-99.99,Weather View 32 v70,2013-07-22 11:39:00,
2013-07-22 05:44:00,58.0,51.2,29.95,NW,315,6.0,13.0,78,0.00,,,-99.99,Weather View 32 v70,2013-07-22 11:44:00,
2013-07-22 05:49:00,58.0,50.1,29.95,NW,315,7.0,13.0,75,0.00,,,-99.99,Weather View 32 v70,2013-07-22 11:49:00,
2013-07-22 05:54:00,59.0,50.3,29.96,NW,315,5.0,13.0,73,0.00,,,-99.99,Weather View 32 v70,2013-07-22 11:54:00,
2013-07-22 05:59:00,58.0,50.1,29.96,North,360,9.0,12.0,75,0.00,,,-99.99,Weather View 32 v70,2013-07-22 11:59:00,
2013-07-22 06:04:00,58.0,49.7,29.96,NW,315,9.0,10.0,74,0.00,,,-99.99,Weather View 32 v70,2013-07-22 12:04:00,
2013-07-22 06:09:00,59.0,50.3,29.96,NW,315,6.0,11.0,73,0.00,,,-99.99,Weather View 32 v70,2013-07-22 12:09:00,
2013-07-22 06:19:00,59.0,51.1,29.96,NW,315,8.0,11.0,75,0.00,,,-99.99,Weather View 32 v70,2013-07-22 12:19:00,
2013-07-22 06:24:00,59.0,51.1,29.97,NW,315,7.0,11.0,75,0.00,,,-99.99,Weather View 32 v70,2013-07-22 12:24:00,
2013-07-22 06:29:00,60.0,51.7,29.97,North,360,7.0,11.0,74,0.00,,,-99.99,Weather View 32 v70,2013-07-22 12:29:00,
2013-07-22 06:34:00,60.0,51.7,29.96,NNW,337,8.0,11.0,74,0.00,,,-99.99,Weather View 32 v70,2013-07-22 12:34:00,
2013-07-22 06:39:00,59.0,51.1,29.96,NW,315,8.0,11.0,75,0.00,,,-99.99,Weather View 32 v70,2013-07-22 12:39:00,
2013-07-22 06:44:00,60.0,51.7,29.96,NW,315,9.0,11.0,74,0.00,,,-99.99,Weather View 32 v70,2013-07-22 12:44:00,
2013-07-22 06:49:00,61.0,52.3,29.96,NNW,337,8.0,13.0,73,0.00,,,-99.99,Weather View 32 v70,2013-07-22 12:49:00,
2013-07-22 06:54:00,62.0,52.1,29.96,North,360,10.0,13.0,70,0.00,,,-99.99,Weather View 32 v70,2013-07-22 12:54:00,
2013-07-22 06:59:00,62.0,52.1,29.96,North,360,10.0,13.0,70,0.00,,,-99.99,Weather View 32 v70,2013-07-22 12:59:00,
2013-07-22 07:04:00,62.0,52.5,29.96,NNW,337,10.0,13.0,71,0.00,,,-99.99,Weather View 32 v70,2013-07-22 13:04:00,
2013-07-22 07:09:00,62.0,52.8,29.96,NW,315,9.0,13.0,72,0.00,,,-99.99,Weather View 32 v70,2013-07-22 13:09:00,
2013-07-22 07:14:00,64.0,53.2,29.95,NNW,337,10.0,13.0,68,0.00,,,-99.99,Weather View 32 v70,2013-07-22 13:14:00,
2013-07-22 07:19:00,65.0,54.6,29.95,NW,315,9.0,13.0,69,0.00,,,-99.99,Weather View 32 v70,2013-07-22 13:19:00,
2013-07-22 07:24:00,66.0,55.5,29.95,NNW,337,7.0,13.0,69,0.00,,,-99.99,Weather View 32 v70,2013-07-22 13:24:00,
2013-07-22 07:34:00,68.0,57.8,29.94,NW,315,8.0,13.0,70,0.00,,,-99.99,Weather View 32 v70,2013-07-22 13:34:00,
2013-07-22 07:44:00,71.0,57.7,29.93,NNW,337,7.0,13.0,63,0.00,,,-99.99,Weather View 32 v70,2013-07-22 13:44:00,
2013-07-22 07:49:00,72.0,59.1,29.93,North,360,9.0,13.0,64,0.00,,,-99.99,Weather View 32 v70,2013-07-22 13:49:00,
2013-07-22 07:54:00,73.0,58.2,29.93,North,360,6.0,13.0,60,0.00,,,-99.99,Weather View 32 v70,2013-07-22 13:54:00,
2013-07-22 07:59:00,74.0,60.1,29.93,North,360,8.0,13.0,62,0.00,,,-99.99,Weather View 32 v70,2013-07-22 13:59:00,
2013-07-22 08:04:00,75.0,61.1,29.92,North,360,9.0,13.0,62,0.00,,,-99.99,Weather View 32 v70,2013-07-22 14:04:00,
2013-07-22 08:09:00,76.0,62.0,29.92,NNW,337,6.0,13.0,62,0.00,,,-99.99,Weather View 32 v70,2013-07-22 14:09:00,
2013-07-22 08:14:00,77.0,62.9,29.92,NNW,337,6.0,13.0,62,0.00,,,-99.99,Weather View 32 v70,2013-07-22 14:14:00,
2013-07-22 08:19:00,77.0,62.5,29.92,North,360,6.0,12.0,61,0.00,,,-99.99,Weather View 32 v70,2013-07-22 14:19:00,
2013-07-22 08:29:00,79.0,61.9,29.91,North,360,7.0,12.0,56,0.00,,,-99.99,Weather View 32 v70,2013-07-22 14:29:00,
2013-07-22 08:34:00,79.0,60.9,29.91,North,360,6.0,12.0,54,0.00,,,-99.99,Weather View 32 v70,2013-07-22 14:34:00,
2013-07-22 08:39:00,80.0,57.9,29.91,North,360,8.0,12.0,47,0.00,,,-99.99,Weather View 32 v70,2013-07-22 14:39:00,
2013-07-22 08:44:00,80.0,60.2,29.91,NNW,337,3.0,11.0,51,0.00,,,-99.99,Weather View 32 v70,2013-07-22 14:44:00,
2013-07-22 08:49:00,81.0,59.4,29.91,North,360,7.0,11.0,48,0.00,,,-99.99,Weather View 32 v70,2013-07-22 14:49:00,
2013-07-22 08:54:00,81.0,57.0,29.91,North,360,8.0,11.0,44,0.00,,,-99.99,Weather View 32 v70,2013-07-22 14:54:00,
2013-07-22 08:59:00,82.0,56.6,29.91,North,360,6.0,11.0,42,0.00,,,-99.99,Weather View 32 v70,2013-07-22 14:59:00,
2013-07-22 09:04:00,83.0,60.6,29.90,North,360,6.0,11.0,47,0.00,,,-99.99,Weather View 32 v70,2013-07-22 15:04:00,
2013-07-22 09:09:00,83.0,60.6,29.90,North,360,6.0,10.0,47,0.00,,,-99.99,Weather View 32 v70,2013-07-22 15:09:00,
2013-07-22 09:14:00,83.0,58.1,29.90,North,360,7.0,11.0,43,0.00,,,-99.99,Weather View 32 v70,2013-07-22 15:14:00,
2013-07-22 09:19:00,83.0,57.5,29.90,NNE,22,10.0,11.0,42,0.00,,,-99.99,Weather View 32 v70,2013-07-22 15:19:00,
2013-07-22 09:24:00,83.0,59.4,29.90,NNE,22,7.0,11.0,45,0.00,,,-99.99,Weather View 32 v70,2013-07-22 15:24:00,
2013-07-22 09:29:00,82.0,59.7,29.90,NE,45,7.0,11.0,47,0.00,,,-99.99,Weather View 32 v70,2013-07-22 15:29:00,
2013-07-22 09:34:00,82.0,59.7,29.91,NNE,22,8.0,11.0,47,0.00,,,-99.99,Weather View 32 v70,2013-07-22 15:34:00,
2013-07-22 09:44:00,83.0,54.0,29.91,ENE,67,7.0,11.0,37,0.00,,,-99.99,Weather View 32 v70,2013-07-22 15:44:00,
2013-07-22 09:49:00,83.0,60.0,29.91,NNE,22,7.0,11.0,46,0.00,,,-99.99,Weather View 32 v70,2013-07-22 15:49:00,
2013-07-22 09:54:00,82.0,58.5,29.91,NE,45,7.0,13.0,45,0.00,,,-99.99,Weather View 32 v70,2013-07-22 15:54:00,
2013-07-22 09:59:00,83.0,57.5,29.91,NNE,22,4.0,13.0,42,0.00,,,-99.99,Weather View 32 v70,2013-07-22 15:59:00,
2013-07-22 10:04:00,83.0,54.7,29.92,NNE,22,4.0,13.0,38,0.00,,,-99.99,Weather View 32 v70,2013-07-22 16:04:00,
2013-07-22 10:09:00,84.0,54.8,29.92,NW,315,2.0,13.0,37,0.00,,,-99.99,Weather View 32 v70,2013-07-22 16:09:00,
2013-07-22 10:14:00,85.0,55.0,29.92,North,360,5.0,13.0,36,0.00,,,-99.99,Weather View 32 v70,2013-07-22 16:14:00,
2013-07-22 10:19:00,84.0,59.0,29.92,East,90,10.0,13.0,43,0.00,,,-99.99,Weather View 32 v70,2013-07-22 16:19:00,
2013-07-22 10:24:00,83.0,58.8,29.92,ENE,67,10.0,15.0,44,0.00,,,-99.99,Weather View 32 v70,2013-07-22 16:24:00,
2013-07-22 10:29:00,83.0,58.8,29.92,NE,45,11.0,15.0,44,0.00,,,-99.99,Weather View 32 v70,2013-07-22 16:29:00,
2013-07-22 10:34:00,83.0,57.5,29.93,East,90,9.0,15.0,42,0.00,,,-99.99,Weather View 32 v70,2013-07-22 16:34:00,
2013-07-22 10:39:00,83.0,59.4,29.93,NE,45,7.0,15.0,45,0.00,,,-99.99,Weather View 32 v70,2013-07-22 16:39:00,
2013-07-22 10:44:00,83.0,59.4,29.93,NNE,22,9.0,15.0,45,0.00,,,-99.99,Weather View 32 v70,2013-07-22 16:44:00,
2013-07-22 10:49:00,83.0,58.1,29.93,NNE,22,6.0,15.0,43,0.00,,,-99.99,Weather View 32 v70,2013-07-22 16:49:00,
2013-07-22 10:54:00,84.0,57.0,29.93,ENE,67,7.0,15.0,40,0.00,,,-99.99,Weather View 32 v70,2013-07-22 16:54:00,
2013-07-22 10:59:00,83.0,57.5,29.93,North,360,6.0,15.0,42,0.00,,,-99.99,Weather View 32 v70,2013-07-22 16:59:00,
2013-07-22 11:04:00,85.0,57.2,29.92,North,360,7.0,15.0,39,0.00,,,-99.99,Weather View 32 v70,2013-07-22 17:04:00,
2013-07-22 11:09:00,86.0,55.8,29.92,NE,45,6.0,15.0,36,0.00,,,-99.99,Weather View 32 v70,2013-07-22 17:09:00,
2013-07-22 11:14:00,85.0,54.2,29.92,East,90,4.0,15.0,35,0.00,,,-99.99,Weather View 32 v70,2013-07-22 17:14:00,
2013-07-22 11:19:00,85.0,56.5,29.92,North,360,5.0,15.0,38,0.00,,,-99.99,Weather View 32 v70,2013-07-22 17:19:00,
2013-07-22 11:24:00,86.0,54.3,29.91,NNE,22,4.0,15.0,34,0.00,,,-99.99,Weather View 32 v70,2013-07-22 17:24:00,
2013-07-22 11:34:00,86.0,57.3,29.91,NNE,22,6.0,15.0,38,0.00,,,-99.99,Weather View 32 v70,2013-07-22 17:34:00,
2013-07-22 11:39:00,86.0,52.6,29.91,NE,45,3.0,15.0,32,0.00,,,-99.99,Weather View 32 v70,2013-07-22 17:39:00,
2013-07-22 11:44:00,86.0,49.9,29.91,East,90,7.0,15.0,29,0.00,,,-99.99,Weather View 32 v70,2013-07-22 17:44:00,
2013-07-22 11:49:00,86.0,52.6,29.91,NNW,337,5.0,11.0,32,0.00,,,-99.99,Weather View 32 v70,2013-07-22 17:49:00,
2013-07-22 11:54:00,86.0,52.6,29.91,East,90,6.0,10.0,32,0.00,,,-99.99,Weather View 32 v70,2013-07-22 17:54:00,
2013-07-22 12:04:00,87.0,55.1,29.91,NE,45,6.0,13.0,34,0.00,,,-99.99,Weather View 32 v70,2013-07-22 18:04:00,
2013-07-22 12:09:00,86.0,53.4,29.91,North,360,5.0,13.0,33,0.00,,,-99.99,Weather View 32 v70,2013-07-22 18:09:00,
2013-07-22 12:14:00,87.0,54.3,29.91,North,360,6.0,13.0,33,0.00,,,-99.99,Weather View 32 v70,2013-07-22 18:14:00,
2013-07-22 12:19:00,87.0,55.9,29.91,North,360,6.0,13.0,35,0.00,,,-99.99,Weather View 32 v70,2013-07-22 18:19:00,
2013-07-22 12:24:00,88.0,57.6,29.91,North,360,5.0,13.0,36,0.00,,,-99.99,Weather View 32 v70,2013-07-22 18:24:00,
2013-07-22 12:34:00,87.0,55.9,29.91,North,360,6.0,13.0,35,0.00,,,-99.99,Weather View 32 v70,2013-07-22 18:34:00,
2013-07-22 12:44:00,87.0,51.7,29.90,NE,45,6.0,13.0,30,0.00,,,-99.99,Weather View 32 v70,2013-07-22 18:44:00,
2013-07-22 12:54:00,87.0,52.6,29.90,ESE,112,6.0,13.0,31,0.00,,,-99.99,Weather View 32 v70,2013-07-22 18:54:00,
2013-07-22 13:04:00,88.0,56.8,29.89,NNE,22,7.0,12.0,35,0.00,,,-99.99,Weather View 32 v70,2013-07-22 19:04:00,
2013-07-22 13:09:00,87.0,55.1,29.89,ENE,67,12.0,16.0,34,0.00,,,-99.99,Weather View 32 v70,2013-07-22 19:09:00,
2013-07-22 13:14:00,87.0,55.1,29.90,East,90,8.0,16.0,34,0.00,,,-99.99,Weather View 32 v70,2013-07-22 19:14:00,
2013-07-22 13:19:00,87.0,55.1,29.90,East,90,7.0,16.0,34,0.00,,,-99.99,Weather View 32 v70,2013-07-22 19:19:00,
2013-07-22 13:29:00,87.0,55.9,29.90,East,90,9.0,16.0,35,0.00,,,-99.99,Weather View 32 v70,2013-07-22 19:29:00,
2013-07-22 13:34:00,87.0,54.3,29.89,NE,45,5.0,16.0,33,0.00,,,-99.99,Weather View 32 v70,2013-07-22 19:34:00,
2013-07-22 13:39:00,87.0,53.5,29.89,NNE,22,8.0,16.0,32,0.00,,,-99.99,Weather View 32 v70,2013-07-22 19:39:00,
2013-07-22 13:44:00,88.0,54.3,29.89,NNW,337,1.0,16.0,32,0.00,,,-99.99,Weather View 32 v70,2013-07-22 19:44:00,
2013-07-22 13:49:00,88.0,55.2,29.89,ESE,112,7.0,16.0,33,0.00,,,-99.99,Weather View 32 v70,2013-07-22 19:49:00,
2013-07-22 13:54:00,87.0,55.1,29.89,ENE,67,9.0,16.0,34,0.00,,,-99.99,Weather View 32 v70,2013-07-22 19:54:00,
2013-07-22 13:59:00,87.0,55.1,29.89,East,90,9.0,17.0,34,0.00,,,-99.99,Weather View 32 v70,2013-07-22 19:59:00,
2013-07-22 14:04:00,87.0,55.1,29.89,East,90,12.0,17.0,34,0.00,,,-99.99,Weather View 32 v70,2013-07-22 20:04:00,
2013-07-22 14:09:00,87.0,54.3,29.89,East,90,5.0,19.0,33,0.00,,,-99.99,Weather View 32 v70,2013-07-22 20:09:00,
2013-07-22 14:19:00,88.0,54.3,29.89,NW,315,9.0,19.0,32,0.00,,,-99.99,Weather View 32 v70,2013-07-22 20:19:00,
2013-07-22 14:24:00,88.0,54.3,29.89,NE,45,2.0,19.0,32,0.00,,,-99.99,Weather View 32 v70,2013-07-22 20:24:00,
2013-07-22 14:29:00,88.0,53.5,29.89,NE,45,7.0,19.0,31,0.00,,,-99.99,Weather View 32 v70,2013-07-22 20:29:00,
2013-07-22 14:34:00,89.0,54.3,29.89,SW,225,2.0,19.0,31,0.00,,,-99.99,Weather View 32 v70,2013-07-22 20:34:00,
2013-07-22 14:37:00,89.0,54.3,29.89,SW,225,2.0,19.0,31,0.00,,,-99.99,Weather View 32 v70,2013-07-22 20:37:00,
2013-07-22 14:44:00,88.0,53.5,29.89,SE,135,7.0,19.0,31,0.00,,,-99.99,Weather View 32 v70,2013-07-22 20:44:00,
2013-07-22 14:49:00,88.0,52.6,29.89,SW,225,6.0,19.0,30,0.00,,,-99.99,Weather View 32 v70,2013-07-22 20:49:00,
2013-07-22 14:54:00,88.0,52.6,29.89,ESE,112,8.0,19.0,30,0.00,,,-99.99,Weather View 32 v70,2013-07-22 20:54:00,
2013-07-22 14:59:00,89.0,54.3,29.89,East,90,5.0,19.0,31,0.00,,,-99.99,Weather View 32 v70,2013-07-22 20:59:00,
2013-07-22 15:04:00,89.0,56.9,29.88,North,360,9.0,19.0,34,0.00,,,-99.99,Weather View 32 v70,2013-07-22 21:04:00,
2013-07-22 15:09:00,89.0,54.3,29.88,NNE,22,6.0,16.0,31,0.00,,,-99.99,Weather View 32 v70,2013-07-22 21:09:00,
2013-07-22 15:14:00,89.0,55.2,29.88,NNE,22,7.0,16.0,32,0.00,,,-99.99,Weather View 32 v70,2013-07-22 21:14:00,
2013-07-22 15:19:00,88.0,54.3,29.88,ESE,112,12.0,16.0,32,0.00,,,-99.99,Weather View 32 v70,2013-07-22 21:19:00,
2013-07-22 15:24:00,88.0,55.2,29.88,East,90,8.0,20.0,33,0.00,,,-99.99,Weather View 32 v70,2013-07-22 21:24:00,
2013-07-22 15:29:00,88.0,54.3,29.88,SSW,202,6.0,20.0,32,0.00,,,-99.99,Weather View 32 v70,2013-07-22 21:29:00,
2013-07-22 15:34:00,89.0,55.2,29.88,East,90,6.0,20.0,32,0.00,,,-99.99,Weather View 32 v70,2013-07-22 21:34:00,
2013-07-22 15:39:00,89.0,54.3,29.88,ESE,112,5.0,20.0,31,0.00,,,-99.99,Weather View 32 v70,2013-07-22 21:39:00,
2013-07-22 15:44:00,89.0,54.3,29.88,ESE,112,7.0,20.0,31,0.00,,,-99.99,Weather View 32 v70,2013-07-22 21:44:00,
2013-07-22 15:49:00,90.0,56.1,29.88,NNE,22,6.0,20.0,32,0.00,,,-99.99,Weather View 32 v70,2013-07-22 21:49:00,
2013-07-22 15:54:00,89.0,52.5,29.87,East,90,7.0,20.0,29,0.00,,,-99.99,Weather View 32 v70,2013-07-22 21:54:00,
2013-07-22 15:59:00,89.0,55.2,29.87,NNE,22,11.0,20.0,32,0.00,,,-99.99,Weather View 32 v70,2013-07-22 21:59:00,
2013-07-22 16:04:00,89.0,54.3,29.88,North,360,5.0,20.0,31,0.00,,,-99.99,Weather View 32 v70,2013-07-22 22:04:00,
2013-07-22 16:09:00,89.0,53.4,29.88,NNE,22,6.0,20.0,30,0.00,,,-99.99,Weather View 32 v70,2013-07-22 22:09:00,
2013-07-22 16:14:00,89.0,52.5,29.88,NNE,22,3.0,20.0,29,0.00,,,-99.99,Weather View 32 v70,2013-07-22 22:14:00,
2013-07-22 16:19:00,89.0,54.3,29.88,NE,45,6.0,20.0,31,0.00,,,-99.99,Weather View 32 v70,2013-07-22 22:19:00,
2013-07-22 16:24:00,90.0,54.3,29.87,East,90,9.0,18.0,30,0.00,,,-99.99,Weather View 32 v70,2013-07-22 22:24:00,
2013-07-22 16:29:00,90.0,55.2,29.87,ESE,112,13.0,18.0,31,0.00,,,-99.99,Weather View 32 v70,2013-07-22 22:29:00,
2013-07-22 16:34:00,89.0,53.4,29.88,NE,45,9.0,15.0,30,0.00,,,-99.99,Weather View 32 v70,2013-07-22 22:34:00,
2013-07-22 16:39:00,89.0,53.4,29.88,NE,45,8.0,15.0,30,0.00,,,-99.99,Weather View 32 v70,2013-07-22 22:39:00,
2013-07-22 16:44:00,89.0,54.3,29.87,ESE,112,9.0,15.0,31,0.00,,,-99.99,Weather View 32 v70,2013-07-22 22:44:00,
2013-07-22 16:49:00,89.0,52.5,29.87,ESE,112,6.0,15.0,29,0.00,,,-99.99,Weather View 32 v70,2013-07-22 22:49:00,
2013-07-22 16:54:00,89.0,53.4,29.88,SE,135,7.0,15.0,30,0.00,,,-99.99,Weather View 32 v70,2013-07-22 22:54:00,
2013-07-22 16:59:00,89.0,55.2,29.88,SSE,157,6.0,15.0,32,0.00,,,-99.99,Weather View 32 v70,2013-07-22 22:59:00,
2013-07-22 17:04:00,88.0,56.8,29.87,SE,135,2.0,15.0,35,0.00,,,-99.99,Weather View 32 v70,2013-07-22 23:04:00,
2013-07-22 17:09:00,89.0,56.1,29.87,SE,135,5.0,15.0,33,0.00,,,-99.99,Weather View 32 v70,2013-07-22 23:09:00,
2013-07-22 17:14:00,89.0,57.7,29.88,South,180,7.0,15.0,35,0.00,,,-99.99,Weather View 32 v70,2013-07-22 23:14:00,
2013-07-22 17:19:00,89.0,56.9,29.88,SE,135,9.0,15.0,34,0.00,,,-99.99,Weather View 32 v70,2013-07-22 23:19:00,
2013-07-22 17:24:00,88.0,54.3,29.87,ESE,112,7.0,15.0,32,0.00,,,-99.99,Weather View 32 v70,2013-07-22 23:24:00,
2013-07-22 17:29:00,88.0,58.4,29.87,South,180,7.0,15.0,37,0.00,,,-99.99,Weather View 32 v70,2013-07-22 23:29:00,
2013-07-22 17:34:00,88.0,56.8,29.87,South,180,8.0,13.0,35,0.00,,,-99.99,Weather View 32 v70,2013-07-22 23:34:00,
2013-07-22 17:44:00,87.0,56.7,29.87,SSE,157,7.0,13.0,36,0.00,,,-99.99,Weather View 32 v70,2013-07-22 23:44:00,
2013-07-22 17:49:00,87.0,57.5,29.87,SSE,157,6.0,13.0,37,0.00,,,-99.99,Weather View 32 v70,2013-07-22 23:49:00,
2013-07-22 17:54:00,87.0,58.2,29.88,South,180,7.0,13.0,38,0.00,,,-99.99,Weather View 32 v70,2013-07-22 23:54:00,
2013-07-22 17:59:00,87.0,57.5,29.88,South,180,6.0,13.0,37,0.00,,,-99.99,Weather View 32 v70,2013-07-22 23:59:00,
2013-07-22 18:04:00,87.0,57.5,29.87,SE,135,6.0,13.0,37,0.00,,,-99.99,Weather View 32 v70,2013-07-23 00:04:00,
2013-07-22 18:09:00,87.0,55.1,29.87,SSE,157,9.0,13.0,34,0.00,,,-99.99,Weather View 32 v70,2013-07-23 00:09:00,
2013-07-22 18:14:00,86.0,55.8,29.87,SE,135,7.0,13.0,36,0.00,,,-99.99,Weather View 32 v70,2013-07-23 00:14:00,
2013-07-22 18:19:00,86.0,56.6,29.87,South,180,9.0,13.0,37,0.00,,,-99.99,Weather View 32 v70,2013-07-23 00:19:00,
2013-07-22 18:24:00,86.0,57.3,29.88,South,180,7.0,13.0,38,0.00,,,-99.99,Weather View 32 v70,2013-07-23 00:24:00,
2013-07-22 18:29:00,86.0,58.8,29.88,ESE,112,6.0,13.0,40,0.00,,,-99.99,Weather View 32 v70,2013-07-23 00:29:00,
2013-07-22 18:39:00,86.0,58.8,29.87,South,180,7.0,13.0,40,0.00,,,-99.99,Weather View 32 v70,2013-07-23 00:39:00,
2013-07-22 18:44:00,86.0,57.3,29.87,SSE,157,7.0,13.0,38,0.00,,,-99.99,Weather View 32 v70,2013-07-23 00:44:00,
2013-07-22 18:49:00,85.0,57.9,29.87,SSE,157,5.0,13.0,40,0.00,,,-99.99,Weather View 32 v70,2013-07-23 00:49:00,
2013-07-22 18:54:00,85.0,57.9,29.88,SSE,157,4.0,13.0,40,0.00,,,-99.99,Weather View 32 v70,2013-07-23 00:54:00,
2013-07-22 18:59:00,85.0,58.6,29.88,SSE,157,6.0,13.0,41,0.00,,,-99.99,Weather View 32 v70,2013-07-23 00:59:00,
2013-07-22 19:04:00,85.0,58.6,29.87,SE,135,7.0,13.0,41,0.00,,,-99.99,Weather View 32 v70,2013-07-23 01:04:00,
2013-07-22 19:09:00,84.0,59.0,29.87,SE,135,5.0,13.0,43,0.00,,,-99.99,Weather View 32 v70,2013-07-23 01:09:00,
2013-07-22 19:14:00,84.0,59.0,29.88,SSE,157,7.0,13.0,43,0.00,,,-99.99,Weather View 32 v70,2013-07-23 01:14:00,
2013-07-22 19:24:00,84.0,59.7,29.88,SSE,157,6.0,13.0,44,0.00,,,-99.99,Weather View 32 v70,2013-07-23 01:24:00,
2013-07-22 19:29:00,84.0,57.7,29.88,SE,135,5.0,10.0,41,0.00,,,-99.99,Weather View 32 v70,2013-07-23 01:29:00,
2013-07-22 19:34:00,84.0,55.6,29.88,SE,135,6.0,10.0,38,0.00,,,-99.99,Weather View 32 v70,2013-07-23 01:34:00,
2013-07-22 19:40:00,84.0,54.1,29.88,SE,135,7.0,9.0,36,0.00,,,-99.99,Weather View 32 v70,2013-07-23 01:40:00,
2013-07-22 19:49:00,84.0,55.6,29.88,SE,135,6.0,9.0,38,0.00,,,-99.99,Weather View 32 v70,2013-07-23 01:49:00,
2013-07-22 19:54:00,84.0,55.6,29.87,SE,135,6.0,9.0,38,0.00,,,-99.99,Weather View 32 v70,2013-07-23 01:54:00,
2013-07-22 19:59:00,83.0,54.7,29.87,SE,135,8.0,9.0,38,0.00,,,-99.99,Weather View 32 v70,2013-07-23 01:59:00,
2013-07-22 20:04:00,82.0,58.5,29.88,SE,135,4.0,9.0,45,0.00,,,-99.99,Weather View 32 v70,2013-07-23 02:04:00,
2013-07-22 20:09:00,82.0,57.9,29.88,SE,135,3.0,9.0,44,0.00,,,-99.99,Weather View 32 v70,2013-07-23 02:09:00,
2013-07-22 20:14:00,81.0,55.7,29.88,SE,135,6.0,9.0,42,0.00,,,-99.99,Weather View 32 v70,2013-07-23 02:14:00,
2013-07-22 20:24:00,81.0,56.3,29.89,SE,135,4.0,9.0,43,0.00,,,-99.99,Weather View 32 v70,2013-07-23 02:24:00,
2013-07-22 20:29:00,81.0,55.7,29.89,SE,135,2.0,9.0,42,0.00,,,-99.99,Weather View 32 v70,2013-07-23 02:29:00,
2013-07-22 20:34:00,81.0,55.0,29.89,SE,135,6.0,9.0,41,0.00,,,-99.99,Weather View 32 v70,2013-07-23 02:34:00,
2013-07-22 20:39:00,80.0,55.4,29.89,SE,135,5.0,9.0,43,0.00,,,-99.99,Weather View 32 v70,2013-07-23 02:39:00,
2013-07-22 20:44:00,80.0,55.4,29.89,SE,135,4.0,9.0,43,0.00,,,-99.99,Weather View 32 v70,2013-07-23 02:44:00,
2013-07-22 20:49:00,80.0,56.7,29.89,SE,135,2.0,9.0,45,0.00,,,-99.99,Weather View 32 v70,2013-07-23 02:49:00,
2013-07-22 20:54:00,79.0,57.6,29.89,SSE,157,2.0,9.0,48,0.00,,,-99.99,Weather View 32 v70,2013-07-23 02:54:00,
2013-07-22 20:59:00,78.0,57.8,29.89,SSE,157,2.0,9.0,50,0.00,,,-99.99,Weather View 32 v70,2013-07-23 02:59:00,
2013-07-22 21:04:00,78.0,58.3,29.91,SSE,157,0.0,7.0,51,0.00,,,-99.99,Weather View 32 v70,2013-07-23 03:04:00,
2013-07-22 21:09:00,78.0,57.2,29.91,ESE,112,3.0,6.0,49,0.00,,,-99.99,Weather View 32 v70,2013-07-23 03:09:00,
2013-07-22 21:14:00,77.0,58.0,29.91,NE,45,1.0,6.0,52,0.00,,,-99.99,Weather View 32 v70,2013-07-23 03:14:00,
2013-07-22 21:19:00,76.0,59.6,29.91,NE,45,2.0,6.0,57,0.00,,,-99.99,Weather View 32 v70,2013-07-23 03:19:00,
2013-07-22 21:24:00,75.0,57.7,29.93,ENE,67,2.0,6.0,55,0.00,,,-99.99,Weather View 32 v70,2013-07-23 03:24:00,
2013-07-22 21:29:00,75.0,57.2,29.93,East,90,4.0,6.0,54,0.00,,,-99.99,Weather View 32 v70,2013-07-23 03:29:00,
2013-07-22 21:34:00,76.0,54.2,29.93,ESE,112,4.0,7.0,47,0.00,,,-99.99,Weather View 32 v70,2013-07-23 03:34:00,
2013-07-22 21:39:00,77.0,55.2,29.93,SE,135,6.0,7.0,47,0.00,,,-99.99,Weather View 32 v70,2013-07-23 03:39:00,
2013-07-22 21:44:00,77.0,54.0,29.92,SE,135,6.0,7.0,45,0.00,,,-99.99,Weather View 32 v70,2013-07-23 03:44:00,
2013-07-22 21:49:00,78.0,54.2,29.92,SE,135,7.0,10.0,44,0.00,,,-99.99,Weather View 32 v70,2013-07-23 03:49:00,
2013-07-22 21:54:00,78.0,53.6,29.91,SE,135,7.0,10.0,43,0.00,,,-99.99,Weather View 32 v70,2013-07-23 03:54:00,
2013-07-22 21:59:00,79.0,54.5,29.91,SSE,157,8.0,10.0,43,0.00,,,-99.99,Weather View 32 v70,2013-07-23 03:59:00,
2013-07-22 22:04:00,78.0,54.2,29.91,South,180,3.0,10.0,44,0.00,,,-99.99,Weather View 32 v70,2013-07-23 04:04:00,
2013-07-22 22:09:00,77.0,56.3,29.91,South,180,4.0,10.0,49,0.00,,,-99.99,Weather View 32 v70,2013-07-23 04:09:00,
2013-07-22 22:14:00,75.0,56.1,29.93,SSE,157,4.0,10.0,52,0.00,,,-99.99,Weather View 32 v70,2013-07-23 04:14:00,
2013-07-22 22:19:00,75.0,55.0,29.93,SE,135,4.0,10.0,50,0.00,,,-99.99,Weather View 32 v70,2013-07-23 04:19:00,
2013-07-22 22:24:00,76.0,54.2,29.93,SE,135,6.0,10.0,47,0.00,,,-99.99,Weather View 32 v70,2013-07-23 04:24:00,
2013-07-22 22:29:00,76.0,54.2,29.93,SE,135,6.0,10.0,47,0.00,,,-99.99,Weather View 32 v70,2013-07-23 04:29:00,
2013-07-22 22:34:00,76.0,55.4,29.91,SE,135,5.0,10.0,49,0.00,,,-99.99,Weather View 32 v70,2013-07-23 04:34:00,
2013-07-22 22:39:00,75.0,55.6,29.91,SE,135,5.0,10.0,51,0.00,,,-99.99,Weather View 32 v70,2013-07-23 04:39:00,
2013-07-22 22:44:00,74.0,55.2,29.92,SE,135,4.0,10.0,52,0.00,,,-99.99,Weather View 32 v70,2013-07-23 04:44:00,
2013-07-22 22:49:00,74.0,55.7,29.92,SE,135,4.0,10.0,53,0.00,,,-99.99,Weather View 32 v70,2013-07-23 04:49:00,
2013-07-22 22:54:00,74.0,56.2,29.93,SE,135,0.0,10.0,54,0.00,,,-99.99,Weather View 32 v70,2013-07-23 04:54:00,
2013-07-22 22:59:00,73.0,58.7,29.93,North,360,3.0,9.0,61,0.00,,,-99.99,Weather View 32 v70,2013-07-23 04:59:00,
2013-07-22 23:04:00,71.0,56.8,29.94,NW,315,4.0,7.0,61,0.00,,,-99.99,Weather View 32 v70,2013-07-23 05:04:00,
2013-07-22 23:09:00,71.0,56.4,29.94,NW,315,3.0,7.0,60,0.00,,,-99.99,Weather View 32 v70,2013-07-23 05:09:00,
2013-07-22 23:14:00,70.0,56.3,29.94,NW,315,0.0,7.0,62,0.00,,,-99.99,Weather View 32 v70,2013-07-23 05:14:00,
2013-07-22 23:19:00,70.0,56.3,29.94,NW,315,0.0,6.0,62,0.00,,,-99.99,Weather View 32 v70,2013-07-23 05:19:00,
2013-07-22 23:24:00,71.0,56.4,29.95,ESE,112,3.0,6.0,60,0.00,,,-99.99,Weather View 32 v70,2013-07-23 05:24:00,
2013-07-22 23:29:00,72.0,57.3,29.95,NE,45,4.0,6.0,60,0.00,,,-99.99,Weather View 32 v70,2013-07-23 05:29:00,
2013-07-22 23:34:00,68.0,59.8,29.94,NW,315,7.0,9.0,75,0.00,,,-99.99,Weather View 32 v70,2013-07-23 05:34:00,
2013-07-22 23:39:00,67.0,59.5,29.94,NW,315,6.0,9.0,77,0.00,,,-99.99,Weather View 32 v70,2013-07-23 05:39:00,
2013-07-22 23:44:00,67.0,59.2,29.96,NW,315,4.0,9.0,76,0.00,,,-99.99,Weather View 32 v70,2013-07-23 05:44:00,
2013-07-22 23:49:00,67.0,58.0,29.96,NW,315,5.0,9.0,73,0.00,,,-99.99,Weather View 32 v70,2013-07-23 05:49:00,
2013-07-22 23:54:00,68.0,59.4,29.96,NW,315,5.0,9.0,74,0.00,,,-99.99,Weather View 32 v70,2013-07-23 05:54:00,
2013-07-22 23:59:00,67.0,58.4,29.96,NW,315,6.0,9.0,74,0.00,,,-99.99,Weather View 32 v70,2013-07-23 05:59:00,